page 4775 of 1015016 registered users

eBook PostsUsers

  1. 0EmbogmaElaria registered @ 2012-12-05 02:17:21, last login @ 2012-12-05 02:17:21
  2. 0rotate1collar registered @ 2012-12-05 02:18:11, last login @ 2012-12-05 02:18:11
  3. 0leaftemple53 registered @ 2012-12-05 02:18:47, last login @ 2012-12-05 02:18:47
  4. 0Jetsetr107 registered @ 2012-12-05 02:19:02, last login @ 2012-12-05 02:19:02
  5. 0bombcoin56 registered @ 2012-12-05 02:19:27, last login @ 2012-12-05 02:19:27
  6. 0plotroof73 registered @ 2012-12-05 02:20:02, last login @ 2012-12-05 02:20:02
  7. 0stew9breath registered @ 2012-12-05 02:20:32, last login @ 2012-12-05 02:20:32
  8. 0soupstar05 registered @ 2012-12-05 02:21:14, last login @ 2012-12-05 02:21:14
  9. 0motionray8 registered @ 2012-12-05 02:21:15, last login @ 2012-12-05 02:21:15
  10. 0friendbreath40 registered @ 2012-12-05 02:22:57, last login @ 2012-12-05 02:22:57
  11. 0mouse17note registered @ 2012-12-05 02:22:57, last login @ 2012-12-05 02:22:57
  12. 0sudancourse2 registered @ 2012-12-05 02:23:14, last login @ 2012-12-05 02:54:05
  13. 0Procerr registered @ 2012-12-05 02:25:16, last login @ 2012-12-05 02:29:22
  14. 0tuna41spark registered @ 2012-12-05 02:26:07, last login @ 2012-12-05 02:26:07
  15. 0look4basin registered @ 2012-12-05 02:26:16, last login @ 2012-12-05 02:26:16
  16. 0nervesphere5 registered @ 2012-12-05 02:26:30, last login @ 2012-12-05 02:26:30
  17. 0brown14ray registered @ 2012-12-05 02:26:34, last login @ 2012-12-05 02:26:34
  18. 0fact69drain registered @ 2012-12-05 02:35:19, last login @ 2012-12-05 02:35:19
  19. 0musiying registered @ 2012-12-05 02:35:43, last login @ 2012-12-05 02:35:43
  20. 0Maribel registered @ 2012-12-05 02:35:50, last login @ 2012-12-05 02:35:50
  21. 0swamppear1 registered @ 2012-12-05 02:37:05, last login @ 2012-12-05 02:37:05
  22. 0php1234 registered @ 2012-12-05 02:38:05, last login @ 2012-12-05 02:38:05
  23. 0crayonbit7 registered @ 2012-12-05 02:38:47, last login @ 2012-12-05 02:38:47
  24. 0queentitle9 registered @ 2012-12-05 02:41:10, last login @ 2012-12-05 02:41:10
  25. 0glider6ink registered @ 2012-12-05 02:41:14, last login @ 2012-12-05 02:41:14
  26. 0quakqua registered @ 2012-12-05 02:41:37, last login @ 2012-12-05 02:41:37
  27. 0jaalkab registered @ 2012-12-05 02:42:07, last login @ 2012-12-05 02:42:07
  28. 0chiveoption61 registered @ 2012-12-05 02:42:18, last login @ 2012-12-05 02:42:18
  29. 0walrusemery4 registered @ 2012-12-05 02:43:29, last login @ 2012-12-05 02:43:29
  30. 0parceltest50 registered @ 2012-12-05 02:43:54, last login @ 2012-12-05 02:43:54
  31. 0pound2tin registered @ 2012-12-05 02:44:08, last login @ 2012-12-05 02:44:08
  32. 0curve45climb registered @ 2012-12-05 02:44:28, last login @ 2012-12-05 02:44:28
  33. 0whale2spruce registered @ 2012-12-05 02:44:30, last login @ 2012-12-05 02:44:30
  34. 0loan2chime registered @ 2012-12-05 02:45:47, last login @ 2012-12-05 02:45:47
  35. 0mhs2012 registered @ 2012-12-05 02:46:32, last login @ 2012-12-05 02:46:32
  36. 0frown2tyvek registered @ 2012-12-05 02:46:42, last login @ 2012-12-05 02:46:42
  37. 0jury4hill registered @ 2012-12-05 02:46:46, last login @ 2012-12-05 02:46:46
  38. 0timerriver7 registered @ 2012-12-05 02:47:12, last login @ 2012-12-05 02:47:12
  39. 0flesh1maid registered @ 2012-12-05 02:47:39, last login @ 2012-12-05 02:47:39
  40. 0liquorclimb39 registered @ 2012-12-05 02:48:03, last login @ 2012-12-05 02:48:03
  41. 0adult79camel registered @ 2012-12-05 02:48:13, last login @ 2012-12-05 02:48:13
  42. 0bean7waste registered @ 2012-12-05 02:48:33, last login @ 2012-12-05 02:48:33
  43. 0field8dahlia registered @ 2012-12-05 02:49:49, last login @ 2012-12-05 02:49:49
  44. 0horsebubble93 registered @ 2012-12-05 02:50:27, last login @ 2012-12-05 02:50:27
  45. 0bobcatedger52 registered @ 2012-12-05 02:52:39, last login @ 2012-12-05 02:52:39
  46. 0hail0train registered @ 2012-12-05 02:54:40, last login @ 2012-12-05 02:54:40
  47. 0judgelisa78 registered @ 2012-12-05 02:55:19, last login @ 2012-12-05 02:55:19
  48. 0brownstar8 registered @ 2012-12-05 02:55:44, last login @ 2012-12-05 02:55:44
  49. 0stone48tennis registered @ 2012-12-05 02:55:51, last login @ 2012-12-05 02:55:51
  50. 0mustikaaura registered @ 2012-12-05 02:56:55, last login @ 2012-12-05 02:56:55
  51. 0lotiontune72 registered @ 2012-12-05 02:58:27, last login @ 2012-12-05 02:58:27
  52. 0dugoutroad22 registered @ 2012-12-05 02:59:32, last login @ 2012-12-05 02:59:32
  53. 0copynorth5 registered @ 2012-12-05 02:59:52, last login @ 2012-12-05 02:59:52
  54. 0north0gender registered @ 2012-12-05 03:00:12, last login @ 2012-12-05 03:00:12
  55. 0touch7dew registered @ 2012-12-05 03:00:19, last login @ 2012-12-05 03:00:19
  56. 0hayesyvwqpjre registered @ 2012-12-05 03:03:03, last login @ 2012-12-05 03:03:03
  57. 0niahdaiprgw registered @ 2012-12-05 03:03:24, last login @ 2012-12-05 03:03:24
  58. 0ireneujjtd8kha registered @ 2012-12-05 03:03:33, last login @ 2012-12-05 03:03:33
  59. 0dinghybranch69 registered @ 2012-12-05 03:03:41, last login @ 2012-12-05 03:56:37
  60. 0oysterskill34 registered @ 2012-12-05 03:05:40, last login @ 2012-12-05 03:05:40
  61. 0zincsphere34 registered @ 2012-12-05 03:06:18, last login @ 2012-12-05 03:06:18
  62. 0olive55low registered @ 2012-12-05 03:06:23, last login @ 2012-12-05 03:06:23
  63. 0numberguitar11 registered @ 2012-12-05 03:06:46, last login @ 2012-12-05 03:06:46
  64. 0jawcarrot27 registered @ 2012-12-05 03:07:41, last login @ 2012-12-05 03:07:41
  65. 0galleytyvek20 registered @ 2012-12-05 03:07:59, last login @ 2012-12-05 03:07:59
  66. 0snail46gander registered @ 2012-12-05 03:08:33, last login @ 2012-12-05 03:08:33
  67. 0sphynxsnake5 registered @ 2012-12-05 03:09:15, last login @ 2012-12-05 03:47:45
  68. 0touch32date registered @ 2012-12-05 03:10:14, last login @ 2012-12-05 03:10:14
  69. 0bahram4 registered @ 2012-12-05 03:10:21, last login @ 2012-12-05 03:10:21
  70. 0chance6cannon registered @ 2012-12-05 03:11:00, last login @ 2012-12-05 03:11:00
  71. 0singlecattle9 registered @ 2012-12-05 03:11:15, last login @ 2012-12-05 03:11:15
  72. 0hook45cloudy registered @ 2012-12-05 03:12:15, last login @ 2012-12-05 03:46:21
  73. 0seasonpatch23 registered @ 2012-12-05 03:12:40, last login @ 2012-12-05 03:42:41
  74. 0theoryrake94 registered @ 2012-12-05 03:13:05, last login @ 2012-12-05 03:46:11
  75. 0gripsecond1 registered @ 2012-12-05 03:13:22, last login @ 2012-12-05 03:44:13
  76. 0window5lumber registered @ 2012-12-05 03:13:32, last login @ 2012-12-05 03:13:32
  77. 0areaviolin14 registered @ 2012-12-05 03:14:07, last login @ 2012-12-05 03:14:07
  78. 0alibipan34 registered @ 2012-12-05 03:14:11, last login @ 2012-12-05 03:14:11
  79. 0lentilmagic28 registered @ 2012-12-05 03:15:20, last login @ 2012-12-05 03:15:20
  80. 0layer4crib registered @ 2012-12-05 03:15:25, last login @ 2012-12-05 03:15:25
  81. 0nylonsalary4 registered @ 2012-12-05 03:15:40, last login @ 2012-12-05 03:42:42
  82. 0theory4size registered @ 2012-12-05 03:15:48, last login @ 2012-12-05 03:42:55
  83. 0flock30bag registered @ 2012-12-05 03:16:52, last login @ 2012-12-05 03:16:52
  84. 0bladeneedle28 registered @ 2012-12-05 03:18:37, last login @ 2012-12-05 03:18:37
  85. 0trainroof6 registered @ 2012-12-05 03:19:20, last login @ 2012-12-05 03:19:20
  86. 0seedercrown4 registered @ 2012-12-05 03:19:38, last login @ 2012-12-05 03:56:01
  87. 0planetbanana08 registered @ 2012-12-05 03:20:06, last login @ 2012-12-05 03:46:02
  88. 0look5limit registered @ 2012-12-05 03:23:56, last login @ 2012-12-05 03:23:56
  89. 0child95taurus registered @ 2012-12-05 03:24:01, last login @ 2012-12-05 03:24:01
  90. 0mitten8jaw registered @ 2012-12-05 03:24:56, last login @ 2012-12-05 03:24:56
  91. 0poundface87 registered @ 2012-12-05 03:25:29, last login @ 2012-12-05 03:25:29
  92. 0Floopodia registered @ 2012-12-05 03:25:52, last login @ 2012-12-05 03:25:52
  93. 0kristiwright registered @ 2012-12-05 03:26:53, last login @ 2012-12-05 03:26:53
  94. 0coldray3 registered @ 2012-12-05 03:27:19, last login @ 2012-12-05 03:27:19
  95. 0anklebattle0 registered @ 2012-12-05 03:27:33, last login @ 2012-12-05 03:27:33
  96. 0peru95calf registered @ 2012-12-05 03:27:45, last login @ 2012-12-05 03:59:32
  97. 0ticket4blow registered @ 2012-12-05 03:29:26, last login @ 2012-12-05 03:49:34
  98. 0atomclient2 registered @ 2012-12-05 03:29:47, last login @ 2012-12-05 03:57:43
  99. 0sheetgate01 registered @ 2012-12-05 03:30:10, last login @ 2012-12-05 03:30:10
  100. 0animalfind44 registered @ 2012-12-05 03:30:28, last login @ 2012-12-05 03:30:28
  101. 0hot8pan registered @ 2012-12-05 03:30:40, last login @ 2012-12-05 03:51:32

More...

[4785] [4784] [4783] [4782] [4781] [4780] [4779] [4778] [4777] [4776] [4775] [4774] [4773] [4772] [4771] [4770] [4769] [4768] [4767] [4766] ...[1]
Back to Top